Time;durP1;ratioP1;P1;durP2;ratioP2;P2;SDS_P1;SDS_P2;PMS_P1;PMS_P2;Temp;Humidity;BMP_temperature;BMP_pressure;BME280_temperature;BME280_humidity;BME280_pressure;Samples;Min_cycle;Max_cycle;Signal;HPM_P1;HPM_P2
2023/03/15 00:02:00;;;;;;;5.35;4.90;;;2.80;99.90;;;;;;5860057;24;20224;-70
2023/03/15 00:04:27;;;;;;;9.52;5.05;;;2.80;99.90;;;;;;5864805;24;20204;-70
2023/03/15 00:06:54;;;;;;;6.68;5.68;;;2.80;99.90;;;;;;5854976;24;20209;-71
2023/03/15 00:09:23;;;;;;;8.82;5.50;;;2.80;99.90;;;;;;5858788;24;20209;-71
2023/03/15 00:11:50;;;;;;;7.55;6.82;;;2.80;99.90;;;;;;5864334;24;20686;-70
2023/03/15 00:14:18;;;;;;;7.75;6.97;;;2.80;99.90;;;;;;5870439;24;20194;-70
2023/03/15 00:16:47;;;;;;;7.40;6.80;;;2.90;99.90;;;;;;5870496;24;20204;-70
2023/03/15 00:19:16;;;;;;;6.70;6.20;;;2.90;99.90;;;;;;5865157;24;20256;-71
2023/03/15 00:21:43;;;;;;;7.93;7.18;;;2.90;99.90;;;;;;5862688;24;20324;-70
2023/03/15 00:24:11;;;;;;;8.75;7.85;;;2.90;99.90;;;;;;5872170;24;20295;-70
2023/03/15 00:26:38;;;;;;;7.63;6.97;;;2.90;99.90;;;;;;5868814;24;20254;-70
2023/03/15 00:29:05;;;;;;;6.82;6.22;;;2.80;99.90;;;;;;5866770;24;20235;-70
2023/03/15 00:31:34;;;;;;;7.90;7.10;;;2.90;99.90;;;;;;5864656;24;20201;-70
2023/03/15 00:34:01;;;;;;;9.85;6.85;;;2.90;99.90;;;;;;5876532;24;20198;-70
2023/03/15 00:36:28;;;;;;;10.00;8.95;;;2.90;99.90;;;;;;5866461;24;20621;-70
2023/03/15 00:38:56;;;;;;;9.55;8.13;;;2.90;99.90;;;;;;5865344;24;20225;-70
2023/03/15 00:41:24;;;;;;;8.30;7.13;;;2.80;99.90;;;;;;5866625;24;20202;-70
2023/03/15 00:43:51;;;;;;;8.23;7.15;;;2.80;99.90;;;;;;5864458;24;20278;-70
2023/03/15 00:46:20;;;;;;;10.23;7.40;;;2.80;99.90;;;;;;5862585;24;20204;-71
2023/03/15 00:48:51;;;;;;;8.15;6.55;;;2.80;99.90;;;;;;5854719;24;20266;-71
2023/03/15 00:51:21;;;;;;;8.13;6.75;;;2.80;99.90;;;;;;5866703;24;20200;-71
2023/03/15 00:53:49;;;;;;;7.90;6.93;;;2.80;99.90;;;;;;5863397;24;20559;-70
2023/03/15 00:56:18;;;;;;;7.88;6.78;;;2.80;99.90;;;;;;5864627;24;20201;-71
2023/03/15 00:58:46;;;;;;;7.40;6.28;;;2.80;99.90;;;;;;5852948;24;20201;-70
2023/03/15 01:01:15;;;;;;;8.80;6.45;;;2.70;99.90;;;;;;5867047;24;20196;-71
2023/03/15 01:03:43;;;;;;;11.65;7.25;;;2.70;99.90;;;;;;5865863;24;20270;-71
2023/03/15 01:06:14;;;;;;;9.48;7.20;;;2.70;99.90;;;;;;5863620;24;20668;-70
2023/03/15 01:08:41;;;;;;;8.30;6.00;;;2.70;99.90;;;;;;5863456;24;20242;-71
2023/03/15 01:11:11;;;;;;;7.97;6.13;;;2.70;99.90;;;;;;5866284;24;20713;-70
2023/03/15 01:13:39;;;;;;;13.48;6.75;;;2.60;99.90;;;;;;5864997;24;20315;-71
2023/03/15 01:16:08;;;;;;;8.20;5.43;;;2.60;99.90;;;;;;5866118;24;20307;-70
2023/03/15 01:18:36;;;;;;;10.80;6.00;;;2.60;99.90;;;;;;5863209;24;20211;-71
2023/03/15 01:21:03;;;;;;;8.63;6.45;;;2.60;99.90;;;;;;5857912;24;20336;-70
2023/03/15 01:23:31;;;;;;;8.88;6.45;;;2.60;99.90;;;;;;5862027;24;20950;-70
2023/03/15 01:26:00;;;;;;;9.25;5.70;;;2.50;99.90;;;;;;5868442;24;20310;-71
2023/03/15 01:28:27;;;;;;;8.25;5.82;;;2.50;99.90;;;;;;5862495;24;20299;-71
2023/03/15 01:30:54;;;;;;;9.00;5.50;;;2.50;99.90;;;;;;5858842;24;20203;-70
2023/03/15 01:33:21;;;;;;;8.30;4.80;;;2.50;99.90;;;;;;5859267;24;20227;-70
2023/03/15 01:35:57;;;;;;;7.18;5.43;;;2.40;99.90;;;;;;5876999;24;20194;-70
2023/03/15 01:38:24;;;;;;;8.75;5.22;;;2.40;99.90;;;;;;5857201;24;20200;-70
2023/03/15 01:40:52;;;;;;;5.22;4.00;;;2.40;99.90;;;;;;5863294;24;20587;-70
2023/03/15 01:43:21;;;;;;;6.93;4.50;;;2.40;99.90;;;;;;5871161;24;20221;-70
2023/03/15 01:46:07;;;;;;;6.32;4.20;;;2.40;99.90;;;;;;5866283;24;20742;-70
2023/03/15 01:48:38;;;;;;;5.63;3.97;;;2.30;99.90;;;;;;5863007;24;20262;-70
2023/03/15 01:51:11;;;;;;;4.32;3.50;;;2.30;99.90;;;;;;5862579;24;20340;-70
2023/03/15 01:53:42;;;;;;;6.85;3.95;;;2.30;99.90;;;;;;5861058;24;20213;-69
2023/03/15 01:56:11;;;;;;;4.95;3.60;;;2.30;99.90;;;;;;5863661;24;20234;-69
2023/03/15 01:58:39;;;;;;;5.18;3.30;;;2.30;99.90;;;;;;5856680;24;20285;-69
2023/03/15 02:01:09;;;;;;;5.95;3.40;;;2.20;99.90;;;;;;5865642;24;20632;-69
2023/03/15 02:03:45;;;;;;;4.47;3.28;;;2.20;99.90;;;;;;5865451;24;20219;-69
2023/03/15 02:06:16;;;;;;;5.90;3.88;;;2.20;99.90;;;;;;5865101;24;20323;-69
2023/03/15 02:08:49;;;;;;;4.97;3.58;;;2.10;99.90;;;;;;5865611;24;20201;-69
2023/03/15 02:11:21;;;;;;;5.65;3.08;;;2.10;99.90;;;;;;5868635;24;20226;-69
2023/03/15 02:13:49;;;;;;;7.95;3.45;;;2.10;99.90;;;;;;5861062;24;20354;-70
2023/03/15 02:16:17;;;;;;;5.05;3.20;;;2.10;99.90;;;;;;5869403;24;20303;-69
2023/03/15 02:18:44;;;;;;;4.95;2.55;;;2.00;99.90;;;;;;5866086;24;20195;-69
2023/03/15 02:21:22;;;;;;;4.10;2.90;;;2.00;99.90;;;;;;5861462;24;20309;-69
2023/03/15 02:23:58;;;;;;;4.97;4.00;;;2.00;99.90;;;;;;5859039;24;20286;-69
2023/03/15 02:26:34;;;;;;;3.80;3.30;;;2.00;99.90;;;;;;5868846;24;20202;-69
2023/03/15 02:29:03;;;;;;;7.40;4.22;;;2.00;99.90;;;;;;5865559;24;20611;-69
2023/03/15 02:31:36;;;;;;;4.75;3.00;;;2.00;99.90;;;;;;5864134;24;20293;-69
2023/03/15 02:34:05;;;;;;;6.20;3.08;;;1.90;99.90;;;;;;5864399;24;20195;-69
2023/03/15 02:36:33;;;;;;;3.90;3.50;;;1.90;99.90;;;;;;5865392;24;20211;-69
2023/03/15 02:39:02;;;;;;;3.65;2.90;;;1.90;99.90;;;;;;5871558;24;20272;-69
2023/03/15 02:41:33;;;;;;;3.10;2.40;;;1.90;99.90;;;;;;5864165;24;20234;-69
2023/03/15 02:44:07;;;;;;;4.15;2.35;;;1.90;99.90;;;;;;5862346;24;20281;-69
2023/03/15 02:46:35;;;;;;;2.25;2.05;;;1.90;99.90;;;;;;5868616;24;20208;-69
2023/03/15 02:49:03;;;;;;;2.70;2.03;;;1.90;99.90;;;;;;5865073;24;20231;-69
2023/03/15 02:51:33;;;;;;;2.90;2.30;;;1.80;99.90;;;;;;5865658;24;20735;-69
2023/03/15 02:54:00;;;;;;;2.92;2.45;;;1.80;99.90;;;;;;5865262;24;20198;-69
2023/03/15 02:56:27;;;;;;;3.38;2.30;;;1.70;99.90;;;;;;5875810;24;20729;-69
2023/03/15 02:58:54;;;;;;;3.15;2.40;;;1.70;99.90;;;;;;5861130;24;20207;-69
2023/03/15 03:01:22;;;;;;;3.92;2.50;;;1.70;99.90;;;;;;5856553;24;20228;-69
2023/03/15 03:03:49;;;;;;;3.70;2.60;;;1.60;99.90;;;;;;5864881;24;20221;-69
2023/03/15 03:06:17;;;;;;;3.92;2.17;;;1.60;99.90;;;;;;5869913;24;20210;-69
2023/03/15 03:08:46;;;;;;;3.65;2.63;;;1.60;99.90;;;;;;5853692;24;20195;-69
2023/03/15 03:11:13;;;;;;;4.05;2.10;;;1.60;99.90;;;;;;5867771;24;20237;-68
2023/03/15 03:13:40;;;;;;;4.70;2.22;;;1.60;99.90;;;;;;5867275;24;20216;-69
2023/03/15 03:16:08;;;;;;;3.33;2.35;;;1.60;99.90;;;;;;5868210;24;20285;-68
2023/03/15 03:18:36;;;;;;;2.70;1.88;;;1.60;99.90;;;;;;5856890;24;20199;-69
2023/03/15 03:21:05;;;;;;;3.70;2.40;;;1.60;99.90;;;;;;5866769;24;20308;-68
2023/03/15 03:23:33;;;;;;;4.38;2.30;;;1.60;99.90;;;;;;5865355;24;20218;-69
2023/03/15 03:26:02;;;;;;;7.68;2.40;;;1.60;99.90;;;;;;5853632;24;20216;-68
2023/03/15 03:28:31;;;;;;;5.10;2.30;;;1.60;99.90;;;;;;5867433;24;20281;-68
2023/03/15 03:30:59;;;;;;;4.30;1.92;;;1.60;99.90;;;;;;5865694;24;20205;-69
2023/03/15 03:33:26;;;;;;;4.60;1.85;;;1.60;99.90;;;;;;5866578;24;20562;-69
2023/03/15 03:36:02;;;;;;;2.25;1.80;;;1.70;99.90;;;;;;5873846;24;20841;-69
2023/03/15 03:38:30;;;;;;;3.75;2.28;;;1.70;99.90;;;;;;5867530;24;20249;-69
2023/03/15 03:40:57;;;;;;;3.67;2.30;;;1.70;99.90;;;;;;5868143;24;20635;-68
2023/03/15 03:43:24;;;;;;;1.90;1.75;;;1.70;99.90;;;;;;5870956;24;20294;-69
2023/03/15 03:45:51;;;;;;;3.13;2.28;;;1.70;99.90;;;;;;5860907;24;20673;-68
2023/03/15 03:48:18;;;;;;;4.15;1.90;;;1.70;99.90;;;;;;5867350;24;20200;-68
2023/03/15 03:50:45;;;;;;;3.35;2.25;;;1.70;99.90;;;;;;5858605;24;20204;-68
2023/03/15 03:53:13;;;;;;;4.80;2.40;;;1.70;99.90;;;;;;5866453;24;20222;-68
2023/03/15 03:55:41;;;;;;;5.40;2.33;;;1.70;99.90;;;;;;5865607;24;20288;-68
2023/03/15 03:58:09;;;;;;;2.20;2.00;;;1.70;99.90;;;;;;5864519;24;20207;-68
2023/03/15 04:00:36;;;;;;;5.40;2.35;;;1.60;99.90;;;;;;5863802;24;20258;-68
2023/03/15 04:03:03;;;;;;;3.65;2.13;;;1.60;99.90;;;;;;5865627;24;20222;-68
2023/03/15 04:05:30;;;;;;;6.45;2.38;;;1.60;99.90;;;;;;5866374;24;20195;-69
2023/03/15 04:07:57;;;;;;;3.05;2.25;;;1.60;99.90;;;;;;5864427;24;20732;-68
2023/03/15 04:10:26;;;;;;;4.95;2.05;;;1.50;99.90;;;;;;5868002;24;20221;-69
2023/03/15 04:12:53;;;;;;;5.07;2.45;;;1.60;99.90;;;;;;5866229;24;20249;-69
2023/03/15 04:15:22;;;;;;;6.70;2.42;;;1.50;99.90;;;;;;5865590;24;20225;-68
2023/03/15 04:17:54;;;;;;;2.85;2.03;;;1.50;99.90;;;;;;5866914;24;20195;-68
2023/03/15 04:20:21;;;;;;;4.32;2.15;;;1.60;99.90;;;;;;5862921;24;20261;-68
2023/03/15 04:22:49;;;;;;;7.80;3.97;;;1.50;99.90;;;;;;5864943;24;20626;-68
2023/03/15 04:25:16;;;;;;;4.55;2.63;;;1.60;99.90;;;;;;5866108;24;20691;-69
2023/03/15 04:27:45;;;;;;;6.35;3.58;;;1.60;99.90;;;;;;5871427;24;20198;-68
2023/03/15 04:30:12;;;;;;;6.00;3.00;;;1.60;99.90;;;;;;5875512;24;20198;-68
2023/03/15 04:32:41;;;;;;;6.47;3.30;;;1.50;99.90;;;;;;5864302;24;20214;-68
2023/03/15 04:35:10;;;;;;;4.47;3.03;;;1.50;99.90;;;;;;5865089;24;20737;-68
2023/03/15 04:37:37;;;;;;;5.07;3.10;;;1.50;99.90;;;;;;5867089;24;20199;-68
2023/03/15 04:40:05;;;;;;;4.60;3.20;;;1.50;99.90;;;;;;5870075;24;20206;-68
2023/03/15 04:42:33;;;;;;;8.73;4.28;;;1.60;99.90;;;;;;5863918;24;20282;-68
2023/03/15 04:45:03;;;;;;;5.82;3.40;;;1.50;99.90;;;;;;5876768;24;20194;-68
2023/03/15 04:47:30;;;;;;;7.88;3.72;;;1.50;99.90;;;;;;5865617;24;20234;-68
2023/03/15 04:49:57;;;;;;;4.32;3.35;;;1.50;99.90;;;;;;5863824;24;20202;-68
2023/03/15 04:52:24;;;;;;;5.68;4.28;;;1.50;99.90;;;;;;5864081;24;20296;-68
2023/03/15 04:54:51;;;;;;;5.97;3.60;;;1.50;99.90;;;;;;5876542;24;20247;-68
2023/03/15 04:57:18;;;;;;;8.73;4.00;;;1.50;99.90;;;;;;5866701;24;20230;-68
2023/03/15 04:59:45;;;;;;;4.90;3.65;;;1.50;99.90;;;;;;5864821;24;20633;-68
2023/03/15 05:02:13;;;;;;;9.00;3.60;;;1.50;99.90;;;;;;5861233;24;20225;-68
2023/03/15 05:04:40;;;;;;;5.32;3.42;;;1.50;99.90;;;;;;5866002;24;20202;-69
2023/03/15 05:07:08;;;;;;;18.85;4.90;;;1.50;99.90;;;;;;5863252;24;20281;-68
2023/03/15 05:09:37;;;;;;;4.93;4.07;;;1.60;99.90;;;;;;5866466;24;20554;-68
2023/03/15 05:12:04;;;;;;;8.75;4.43;;;1.60;99.90;;;;;;5860113;24;20226;-68
2023/03/15 05:14:32;;;;;;;5.10;3.60;;;1.60;99.90;;;;;;5864923;24;20218;-68
2023/03/15 05:17:01;;;;;;;4.35;3.53;;;1.60;99.90;;;;;;5864998;24;20190;-68
2023/03/15 05:19:33;;;;;;;5.05;3.60;;;1.60;99.90;;;;;;5865997;24;20230;-69
2023/03/15 05:21:59;;;;;;;6.55;3.92;;;1.60;99.90;;;;;;5860986;24;20309;-69
2023/03/15 05:24:26;;;;;;;6.88;3.50;;;1.60;99.90;;;;;;5863656;24;20197;-69
2023/03/15 05:26:54;;;;;;;4.43;2.97;;;1.60;99.90;;;;;;5863691;24;20760;-69
2023/03/15 05:29:21;;;;;;;5.82;3.53;;;1.50;99.90;;;;;;5868716;24;20228;-68
2023/03/15 05:31:51;;;;;;;3.55;3.22;;;1.60;99.90;;;;;;5857119;24;20312;-69
2023/03/15 05:34:18;;;;;;;4.53;2.80;;;1.50;99.90;;;;;;5870076;24;20676;-69
2023/03/15 05:36:46;;;;;;;4.57;3.05;;;1.50;99.90;;;;;;5856368;24;20306;-69
2023/03/15 05:39:15;;;;;;;7.05;2.70;;;1.50;99.90;;;;;;5863199;24;20282;-69
2023/03/15 05:41:42;;;;;;;7.75;3.10;;;1.60;99.90;;;;;;5863202;24;20246;-69
2023/03/15 05:44:09;;;;;;;3.83;2.47;;;1.60;99.90;;;;;;5866046;24;20202;-68
2023/03/15 05:46:36;;;;;;;6.55;2.65;;;1.60;99.90;;;;;;5853426;24;20195;-68
2023/03/15 05:49:04;;;;;;;4.97;3.05;;;1.60;99.90;;;;;;5852353;24;20246;-69
2023/03/15 05:51:31;;;;;;;3.90;2.80;;;1.70;99.90;;;;;;5858189;24;20218;-68
2023/03/15 05:54:00;;;;;;;8.48;3.15;;;1.70;99.90;;;;;;5857492;24;20266;-69
2023/03/15 05:56:27;;;;;;;9.07;3.20;;;1.70;99.90;;;;;;5863196;24;20199;-69
2023/03/15 05:58:54;;;;;;;6.25;2.88;;;1.70;99.90;;;;;;5860056;24;20674;-70
2023/03/15 06:01:21;;;;;;;7.35;3.10;;;1.80;99.90;;;;;;5857650;24;20295;-70
2023/03/15 06:03:48;;;;;;;6.50;3.13;;;1.80;99.90;;;;;;5868415;24;20635;-68
2023/03/15 06:06:15;;;;;;;5.57;2.65;;;1.80;99.90;;;;;;5861449;24;20260;-68
2023/03/15 06:08:42;;;;;;;6.97;3.10;;;1.80;99.90;;;;;;5864021;24;20304;-68
2023/03/15 06:11:11;;;;;;;6.47;3.00;;;1.90;99.90;;;;;;5862246;24;20640;-68
2023/03/15 06:13:38;;;;;;;7.45;2.60;;;1.90;99.90;;;;;;5866016;24;20198;-69
2023/03/15 06:16:05;;;;;;;6.63;3.20;;;2.00;99.90;;;;;;5858003;24;20648;-70
2023/03/15 06:18:33;;;;;;;5.45;2.70;;;2.00;99.90;;;;;;5874656;24;20181;-69
2023/03/15 06:20:59;;;;;;;4.10;2.58;;;2.00;99.90;;;;;;5858322;24;20269;-69
2023/03/15 06:23:26;;;;;;;3.80;2.50;;;2.00;99.90;;;;;;5863878;24;20212;-70
2023/03/15 06:25:54;;;;;;;6.40;2.80;;;2.10;99.90;;;;;;5871973;24;20261;-70
2023/03/15 06:28:22;;;;;;;4.00;3.03;;;2.10;99.90;;;;;;5865665;24;20249;-70
2023/03/15 06:30:49;;;;;;;4.93;2.50;;;2.20;99.90;;;;;;5867156;24;20203;-70
2023/03/15 06:33:16;;;;;;;9.85;3.20;;;2.20;99.90;;;;;;5864943;24;20207;-70
2023/03/15 06:35:45;;;;;;;5.85;2.38;;;2.30;99.90;;;;;;5885481;24;20607;-70
2023/03/15 06:38:13;;;;;;;6.75;2.78;;;2.30;99.90;;;;;;5865163;24;20257;-70
2023/03/15 06:40:40;;;;;;;9.38;3.00;;;2.40;99.90;;;;;;5871601;24;20276;-70
2023/03/15 06:43:07;;;;;;;4.88;2.30;;;2.50;99.90;;;;;;5864273;24;20217;-70
2023/03/15 06:45:36;;;;;;;9.70;4.20;;;2.50;99.90;;;;;;5874995;24;20280;-70
2023/03/15 06:48:03;;;;;;;7.18;3.33;;;2.60;99.90;;;;;;5865147;24;20288;-70
2023/03/15 06:50:30;;;;;;;6.82;2.78;;;2.70;99.90;;;;;;5870595;24;20225;-70
2023/03/15 06:52:58;;;;;;;4.63;2.60;;;2.80;99.90;;;;;;5878955;24;20623;-69
2023/03/15 06:55:25;;;;;;;3.60;2.67;;;2.80;99.90;;;;;;5870748;24;20657;-70
2023/03/15 06:57:52;;;;;;;5.93;3.45;;;2.90;99.90;;;;;;5848272;24;20220;-70
2023/03/15 07:00:21;;;;;;;5.13;2.20;;;3.00;99.90;;;;;;5842019;24;20217;-70
2023/03/15 07:02:50;;;;;;;7.60;2.92;;;3.20;99.90;;;;;;5863068;24;20240;-69
2023/03/15 07:05:17;;;;;;;6.53;3.83;;;3.30;99.90;;;;;;5847757;24;20184;-70
2023/03/15 07:07:44;;;;;;;6.00;3.13;;;3.40;99.90;;;;;;5858213;24;20195;-69
2023/03/15 07:10:11;;;;;;;5.55;2.78;;;3.40;99.90;;;;;;5856103;24;20203;-69
2023/03/15 07:12:38;;;;;;;8.18;3.15;;;3.60;99.90;;;;;;5875167;24;20758;-69
2023/03/15 07:15:06;;;;;;;7.57;2.15;;;3.60;99.90;;;;;;5873438;24;20232;-70
2023/03/15 07:17:33;;;;;;;4.80;2.50;;;3.70;99.90;;;;;;5862114;24;20207;-69
2023/03/15 07:20:04;;;;;;;6.43;2.33;;;3.80;99.90;;;;;;5856953;24;20275;-70
2023/03/15 07:22:31;;;;;;;9.75;2.97;;;3.90;99.90;;;;;;5869476;24;20298;-70
2023/03/15 07:24:59;;;;;;;6.28;2.40;;;4.00;99.90;;;;;;5863035;24;20197;-70
2023/03/15 07:27:26;;;;;;;6.95;2.60;;;4.20;99.90;;;;;;5851558;24;20193;-70
2023/03/15 07:29:54;;;;;;;5.30;2.15;;;4.30;99.90;;;;;;5859674;24;20638;-70
2023/03/15 07:32:21;;;;;;;5.22;2.00;;;4.30;99.90;;;;;;5855322;24;21165;-70
2023/03/15 07:34:48;;;;;;;5.18;2.08;;;4.30;99.90;;;;;;5851378;24;20190;-70
2023/03/15 07:37:16;;;;;;;3.80;2.13;;;4.40;99.90;;;;;;5865555;24;20223;-70
2023/03/15 07:39:45;;;;;;;8.07;2.28;;;4.40;99.90;;;;;;5865789;24;20198;-69
2023/03/15 07:42:12;;;;;;;8.15;2.83;;;4.40;99.90;;;;;;5857535;24;20588;-71
2023/03/15 07:44:40;;;;;;;2.47;2.03;;;4.50;99.90;;;;;;5853740;24;20718;-70
2023/03/15 07:47:08;;;;;;;5.55;2.40;;;4.60;99.90;;;;;;5861557;24;20190;-70
2023/03/15 07:49:35;;;;;;;7.38;2.95;;;4.70;99.90;;;;;;5866466;24;20200;-70
2023/03/15 07:52:03;;;;;;;4.25;2.45;;;4.80;99.90;;;;;;5856740;24;20783;-70
2023/03/15 07:54:33;;;;;;;6.25;2.10;;;4.80;99.90;;;;;;5867917;24;20197;-70
2023/03/15 07:57:00;;;;;;;3.65;2.17;;;4.80;99.90;;;;;;5863436;24;20629;-71
2023/03/15 07:59:28;;;;;;;4.70;2.55;;;4.80;99.90;;;;;;5859386;24;20232;-70
2023/03/15 08:01:56;;;;;;;3.25;2.10;;;4.80;99.90;;;;;;5856140;24;20344;-71
2023/03/15 08:04:24;;;;;;;4.72;2.22;;;4.90;99.90;;;;;;5869258;24;20192;-71
2023/03/15 08:06:51;;;;;;;4.88;2.00;;;5.10;99.90;;;;;;5873153;24;20470;-71
2023/03/15 08:09:19;;;;;;;3.83;2.00;;;5.30;99.90;;;;;;5868408;24;20185;-71
2023/03/15 08:11:47;;;;;;;5.30;3.10;;;5.50;99.90;;;;;;5860957;24;20244;-71
2023/03/15 08:14:15;;;;;;;3.05;2.00;;;5.80;99.90;;;;;;5865134;24;20194;-71
2023/03/15 08:16:43;;;;;;;3.28;1.83;;;6.10;99.90;;;;;;5850920;24;20201;-71
2023/03/15 08:19:11;;;;;;;4.45;1.88;;;6.30;99.90;;;;;;5864110;24;20249;-71
2023/03/15 08:21:38;;;;;;;3.63;1.83;;;6.40;99.90;;;;;;5863858;24;20673;-71
2023/03/15 08:24:06;;;;;;;5.28;2.15;;;6.50;99.90;;;;;;5860309;24;20198;-71
2023/03/15 08:26:34;;;;;;;3.35;1.92;;;6.50;99.90;;;;;;5854072;24;20198;-71
2023/03/15 08:29:03;;;;;;;6.97;2.10;;;6.60;99.90;;;;;;5859010;24;20225;-71
2023/03/15 08:31:31;;;;;;;4.82;1.80;;;6.70;99.90;;;;;;5865529;24;20278;-73
2023/03/15 08:33:58;;;;;;;4.50;1.80;;;6.80;99.90;;;;;;5865361;24;20220;-71
2023/03/15 08:36:25;;;;;;;3.88;1.70;;;6.80;99.90;;;;;;5864445;24;20675;-71
2023/03/15 08:38:53;;;;;;;3.30;1.52;;;6.90;99.90;;;;;;5859283;24;20231;-71
2023/03/15 08:41:20;;;;;;;5.25;2.50;;;7.00;99.90;;;;;;5858854;24;20221;-71
2023/03/15 08:43:47;;;;;;;4.80;1.75;;;7.20;99.90;;;;;;5863435;24;20193;-71
2023/03/15 08:46:16;;;;;;;5.43;2.00;;;7.10;99.90;;;;;;5860190;24;20734;-71
2023/03/15 08:48:43;;;;;;;4.28;1.77;;;7.00;99.90;;;;;;5864260;24;20233;-71
2023/03/15 08:51:10;;;;;;;4.40;2.10;;;7.10;99.90;;;;;;5855314;24;20247;-71
2023/03/15 08:53:37;;;;;;;4.95;2.00;;;7.20;99.90;;;;;;5864729;24;20205;-71
2023/03/15 08:56:05;;;;;;;5.18;1.85;;;7.30;99.90;;;;;;5865382;24;20660;-72
2023/03/15 08:58:31;;;;;;;4.32;1.80;;;7.10;99.90;;;;;;5863850;24;20193;-71
2023/03/15 09:00:59;;;;;;;2.85;2.03;;;6.80;99.90;;;;;;5856570;24;20194;-71
2023/03/15 09:03:27;;;;;;;4.32;1.92;;;6.40;99.90;;;;;;5864637;24;20728;-71
2023/03/15 09:05:56;;;;;;;3.55;1.63;;;6.20;99.90;;;;;;5864411;24;20194;-71
2023/03/15 09:08:24;;;;;;;4.63;2.13;;;6.10;99.90;;;;;;5858147;24;20194;-71
2023/03/15 09:10:54;;;;;;;3.95;2.10;;;6.10;99.90;;;;;;5865900;24;20194;-71
2023/03/15 09:13:21;;;;;;;4.72;1.90;;;6.10;99.90;;;;;;5863856;24;20213;-71
2023/03/15 09:15:50;;;;;;;4.80;2.00;;;6.10;99.90;;;;;;5851019;24;20268;-71
2023/03/15 09:18:17;;;;;;;2.85;2.25;;;6.10;99.90;;;;;;5857029;24;20193;-71
2023/03/15 09:20:45;;;;;;;5.10;2.10;;;6.10;99.90;;;;;;5868071;24;20628;-72
2023/03/15 09:23:13;;;;;;;3.58;1.75;;;6.20;99.90;;;;;;5849819;24;20297;-71
2023/03/15 09:25:41;;;;;;;4.47;1.60;;;6.20;99.90;;;;;;5863598;24;20273;-71
2023/03/15 09:28:10;;;;;;;3.05;1.65;;;6.20;99.90;;;;;;5868775;24;21327;-71
2023/03/15 09:30:39;;;;;;;2.47;1.45;;;6.20;99.90;;;;;;5865566;24;20224;-71
2023/03/15 09:33:06;;;;;;;4.88;1.55;;;6.20;99.90;;;;;;5867745;24;20205;-71
2023/03/15 09:35:33;;;;;;;4.70;1.65;;;6.30;99.90;;;;;;5858414;24;20190;-71
2023/03/15 09:38:03;;;;;;;1.63;0.95;;;6.40;99.90;;;;;;5864113;24;20199;-71
2023/03/15 09:40:32;;;;;;;7.82;1.90;;;6.50;99.90;;;;;;5859954;24;20190;-70
2023/03/15 09:43:04;;;;;;;2.92;1.30;;;6.50;99.90;;;;;;5854202;24;20229;-70
2023/03/15 09:45:55;;;;;;;4.00;1.58;;;6.60;99.90;;;;;;5872250;24;20193;-71
2023/03/15 09:48:28;;;;;;;3.00;1.70;;;6.60;99.90;;;;;;5869045;24;20514;-71
2023/03/15 09:51:02;;;;;;;4.53;1.67;;;6.40;99.90;;;;;;5864185;24;20654;-71
2023/03/15 09:53:35;;;;;;;3.85;1.60;;;6.40;99.90;;;;;;5862632;24;20248;-70
2023/03/15 09:56:03;;;;;;;2.20;1.50;;;6.50;99.90;;;;;;5861678;24;20277;-71
2023/03/15 09:58:34;;;;;;;3.10;1.73;;;6.50;99.90;;;;;;5858547;24;20202;-71
2023/03/15 10:01:05;;;;;;;2.20;1.52;;;6.60;99.90;;;;;;5855403;24;20214;-70
2023/03/15 10:03:38;;;;;;;2.25;1.38;;;6.60;99.90;;;;;;5865379;24;20280;-70
2023/03/15 10:06:12;;;;;;;4.10;1.58;;;6.60;99.90;;;;;;5859852;24;20268;-71
2023/03/15 10:08:41;;;;;;;1.98;1.35;;;6.60;99.90;;;;;;5869072;24;20205;-70
2023/03/15 10:11:15;;;;;;;4.65;2.15;;;6.70;99.90;;;;;;5863147;24;20221;-71
2023/03/15 10:13:55;;;;;;;5.47;1.58;;;6.90;99.90;;;;;;5860809;24;20195;-71
2023/03/15 10:16:32;;;;;;;4.30;1.50;;;7.10;99.90;;;;;;5874589;24;20214;-71
2023/03/15 10:19:12;;;;;;;2.25;1.40;;;7.40;99.90;;;;;;5868995;24;21523;-70
2023/03/15 10:21:49;;;;;;;3.72;1.48;;;7.60;99.90;;;;;;5862107;24;20572;-70
2023/03/15 10:24:21;;;;;;;4.90;1.58;;;7.60;99.90;;;;;;5855347;24;20221;-71
2023/03/15 10:26:51;;;;;;;5.88;2.00;;;7.50;99.90;;;;;;5863402;24;20210;-70
2023/03/15 10:29:21;;;;;;;3.30;1.40;;;7.60;99.90;;;;;;5865013;24;20196;-71
2023/03/15 10:31:51;;;;;;;5.45;1.85;;;7.70;99.90;;;;;;5860771;24;20298;-70
2023/03/15 10:34:18;;;;;;;3.60;1.65;;;7.70;99.90;;;;;;5871258;24;20348;-70
2023/03/15 10:36:49;;;;;;;5.45;1.73;;;7.80;99.90;;;;;;5849896;24;20310;-71
2023/03/15 10:39:17;;;;;;;2.90;1.85;;;7.90;99.90;;;;;;5856164;24;20557;-71
2023/03/15 10:41:48;;;;;;;3.28;1.40;;;8.20;99.90;;;;;;5863307;24;20254;-71
2023/03/15 10:44:18;;;;;;;2.70;1.60;;;8.60;99.90;;;;;;5862528;24;20257;-71
2023/03/15 10:47:00;;;;;;;3.15;1.30;;;8.70;99.90;;;;;;5864984;24;20194;-71
2023/03/15 10:49:34;;;;;;;3.70;1.25;;;8.90;99.90;;;;;;5840862;24;20523;-71
2023/03/15 10:52:02;;;;;;;5.70;1.58;;;8.80;99.90;;;;;;5856617;24;20216;-71
2023/03/15 10:54:31;;;;;;;4.85;1.65;;;8.70;99.90;;;;;;5861948;24;20658;-70
2023/03/15 10:57:00;;;;;;;1.92;1.10;;;8.60;99.90;;;;;;5863554;24;20296;-71
2023/03/15 10:59:29;;;;;;;4.40;1.45;;;8.40;99.90;;;;;;5851247;24;20201;-71
2023/03/15 11:02:21;;;;;;;4.32;1.60;;;8.20;99.90;;;;;;5860989;24;20549;-71
2023/03/15 11:04:50;;;;;;;3.60;1.70;;;7.90;99.90;;;;;;5845718;24;20344;-71
2023/03/15 11:07:17;;;;;;;5.38;1.67;;;7.80;99.90;;;;;;5854324;24;20193;-71
2023/03/15 11:09:50;;;;;;;3.25;1.42;;;7.70;99.90;;;;;;5850467;24;20197;-71
2023/03/15 11:12:24;;;;;;;6.00;1.27;;;7.60;99.90;;;;;;5851037;24;20228;-71
2023/03/15 11:14:52;;;;;;;3.83;1.30;;;7.60;99.90;;;;;;5846560;24;20198;-71
2023/03/15 11:17:21;;;;;;;1.65;0.90;;;7.70;99.90;;;;;;5863459;24;20541;-71
2023/03/15 11:19:54;;;;;;;3.67;1.10;;;7.70;99.90;;;;;;5858923;24;20235;-70
2023/03/15 11:22:22;;;;;;;2.95;1.25;;;7.50;99.30;;;;;;5849480;24;20226;-72
2023/03/15 11:24:49;;;;;;;2.35;1.25;;;7.40;99.90;;;;;;5858825;24;20293;-72
2023/03/15 11:27:21;;;;;;;5.72;1.58;;;7.40;99.90;;;;;;5863110;24;20195;-72
2023/03/15 11:29:53;;;;;;;1.67;1.00;;;7.40;99.90;;;;;;5860643;24;20305;-72
2023/03/15 11:32:23;;;;;;;2.95;1.42;;;7.40;99.90;;;;;;5857365;24;20266;-72
2023/03/15 11:34:57;;;;;;;2.90;1.00;;;7.40;99.90;;;;;;5862902;24;20199;-71
2023/03/15 11:37:29;;;;;;;1.35;1.10;;;7.40;99.90;;;;;;5874232;24;20204;-71
2023/03/15 11:40:00;;;;;;;2.28;1.00;;;7.40;99.90;;;;;;5857660;24;20278;-73
2023/03/15 11:42:33;;;;;;;2.17;1.00;;;7.40;99.90;;;;;;5864260;24;20274;-74
2023/03/15 11:45:10;;;;;;;2.55;1.33;;;7.30;99.90;;;;;;5863841;24;20201;-71
2023/03/15 11:47:44;;;;;;;5.00;2.00;;;7.20;99.90;;;;;;5865292;24;20193;-74
2023/03/15 11:50:14;;;;;;;2.55;1.50;;;7.20;99.90;;;;;;5852056;24;21905;-75
2023/03/15 11:52:42;;;;;;;3.20;1.52;;;7.20;99.90;;;;;;5864383;24;20688;-74
2023/03/15 11:55:17;;;;;;;2.33;1.13;;;7.30;99.90;;;;;;5865390;24;20195;-75
2023/03/15 11:57:46;;;;;;;1.83;1.17;;;7.40;99.90;;;;;;5865351;24;20603;-75
2023/03/15 12:00:45;;;;;;;4.72;1.48;;;7.40;99.90;;;;;;5857613;24;20221;-69
2023/03/15 12:03:33;;;;;;;2.17;1.42;;;7.40;99.90;;;;;;5833922;24;20252;-69
2023/03/15 12:06:04;;;;;;;1.80;1.40;;;7.40;99.90;;;;;;5838572;24;20195;-69
2023/03/15 12:08:44;;;;;;;2.35;1.17;;;7.30;99.90;;;;;;5840211;24;20196;-69
2023/03/15 12:11:12;;;;;;;2.50;1.88;;;7.20;99.90;;;;;;5835940;24;21986;-69
2023/03/15 12:13:52;;;;;;;2.70;1.40;;;7.20;99.90;;;;;;5843033;24;20222;-68
2023/03/15 12:16:21;;;;;;;2.03;1.35;;;7.40;99.90;;;;;;5840264;24;20699;-69
2023/03/15 12:18:50;;;;;;;3.28;1.75;;;7.30;99.90;;;;;;5835606;24;20342;-69
2023/03/15 12:21:22;;;;;;;2.67;1.50;;;7.30;99.90;;;;;;5830698;24;20211;-68
2023/03/15 12:24:00;;;;;;;4.97;1.50;;;7.40;99.90;;;;;;5827938;24;20275;-69
2023/03/15 12:26:37;;;;;;;2.65;1.40;;;7.40;99.90;;;;;;5829852;24;20224;-68
2023/03/15 12:29:14;;;;;;;3.08;1.70;;;7.30;99.90;;;;;;5838764;24;20205;-69
2023/03/15 12:31:50;;;;;;;4.47;1.95;;;7.40;99.90;;;;;;5832679;24;20853;-69
2023/03/15 12:34:27;;;;;;;3.50;2.47;;;7.30;99.90;;;;;;5830590;24;20194;-69
2023/03/15 12:36:59;;;;;;;4.90;2.00;;;7.20;99.90;;;;;;5831545;24;20548;-68
2023/03/15 12:39:39;;;;;;;3.85;1.95;;;7.10;99.90;;;;;;5832401;24;20481;-69
2023/03/15 12:42:11;;;;;;;3.47;2.25;;;7.10;99.90;;;;;;5828626;24;20240;-69
2023/03/15 12:44:41;;;;;;;2.78;2.03;;;7.10;99.90;;;;;;5847166;24;20230;-69
2023/03/15 12:47:10;;;;;;;3.65;1.80;;;7.00;99.90;;;;;;5840616;24;20191;-69
2023/03/15 12:49:41;;;;;;;3.60;1.70;;;6.90;99.90;;;;;;5846511;24;20197;-69
2023/03/15 12:52:42;;;;;;;3.67;2.10;;;6.90;99.90;;;;;;5848491;24;20258;-69
2023/03/15 12:55:15;;;;;;;3.58;1.92;;;6.90;99.90;;;;;;5857357;24;20223;-68
2023/03/15 12:57:49;;;;;;;5.75;2.30;;;7.00;99.90;;;;;;5852297;24;20671;-69
2023/03/15 13:00:19;;;;;;;5.28;2.63;;;7.00;99.90;;;;;;5864427;24;20195;-69
2023/03/15 13:02:50;;;;;;;5.10;2.35;;;6.90;99.90;;;;;;5836120;24;20217;-69
2023/03/15 13:05:25;;;;;;;3.58;2.20;;;6.80;99.90;;;;;;5843982;24;20532;-69
2023/03/15 13:07:58;;;;;;;4.47;2.17;;;6.70;99.90;;;;;;5833429;24;20208;-69
2023/03/15 13:10:37;;;;;;;6.38;2.38;;;6.50;99.90;;;;;;5846428;24;20676;-69